GUCY Airport Informations

Runway Information
Runway 06 Length 10826 ft width 148 ft
Elevation 69 ft Threshold ft Heading 49
Runway 24 Length 10826 ft Width 148 ft
Elevation 52 ft Threshold ft Heading 229
Airport Frequencies
Type A/G Name AIR GND Frequency 658.9 MHZ
Type APP Name APP Frequency 119.7 MHZ
Type GND Name GND Frequency 129.1 MHZ
Type TWR Name TWR Frequency 118.7 MHZ
Airport Navaids
Type NDB Name Conakry Frequency 395 KHZ
Type VOR-DME Name Conakry Frequency 114900 KHZ
Type NDB Name Conakry Frequency 365 KHZ
Airport Weather Information & NOTAM
ADDS - METARS form results

(0955 UTC 28 September 2022)
Data provider http://aviationweather.gov/metar/data/
 
METAR text: GUCY 280900Z VRB02KT 9999 SCT015 BKN110 26/24 Q1013 NOSIG
Conditions at: GUCY (CONAKRY/GBESSIA , GN) observed 0900 UTC 28 September 2022
Temperature: 26.0°C (79°F)
Dewpoint: 24.0°C (75°F) [RH = 89%]
Pressure (altimeter): 29.91 inches Hg (1013.0 mb)
Winds: variable direction winds at 2 MPH (2 knots; 1.0 m/s)
Visibility: 6 or more miles (10+ km)
Ceiling: 11000 feet AGL
Clouds: scattered clouds at 1500 feet AGL
broken clouds at 11000 feet AGL
Weather: no significant weather observed at this time